WXForecasting.com
 BROWN COUNTY, SD  -  Wind Advisory Wind Advisory  
Aberdeen, SD - Weather Station Data
Daily Summary for August 13, 2017 Units:  English    Metric   Both
« Previous Day
Next Day »
Daily Weekly Monthly Yearly Custom
  High: Low: Average:
Temperature: 77.5 °F 61.0 °F 66.8 °F
Dew Point: 63.0 °F 58.0 °F 60.6 °F
Humidity: 92 % 54 % 81 %
Wind Speed: 6.0 mph 0.0 mph 1.4 mph
Wind Gust: 12.0 mph - -
Wind:- - SSW
Pressure: 29.93 in 29.77 in -
Precipitation: 0.22 in    
Historical Graphs
 
 
Tabular Data for August 13, 2017
Time Temperature Dew Point Pressure Wind Wind Speed Wind Gust Humidity Rainfall Rate (Hourly) solar Conditions
00:08 63.1 °F 60.0 °F 29.93 in ENE 2.0 mph 3.0 mph 89 % 0.00 in 0 W/m2
00:23 63.2 °F 60.0 °F 29.92 in Calm   2.0 mph 89 % 0.00 in 0 W/m2
00:38 63.6 °F 61.0 °F 29.93 in West 6.0 mph 9.0 mph 90 % 0.02 in 0 W/m2
00:54 63.8 °F 61.0 °F 29.91 in SSW 2.0 mph 11.0 mph 90 % 0.02 in 0 W/m2
01:09 64.2 °F 61.0 °F 29.91 in Calm   3.0 mph 89 % 0.02 in 0 W/m2
01:24 64.3 °F 61.0 °F 29.92 in Calm     89 % 0.03 in 0 W/m2
01:39 64.3 °F 61.0 °F 29.91 in Calm   7.0 mph 89 % 0.02 in 0 W/m2
01:54 64.1 °F 61.0 °F 29.91 in Calm   1.0 mph 89 % 0.02 in 0 W/m2
02:09 63.8 °F 61.0 °F 29.90 in Calm   1.0 mph 89 % 0.02 in 0 W/m2
02:24 63.6 °F 61.0 °F 29.90 in Calm     90 % 0.01 in 0 W/m2
02:39 63.7 °F 61.0 °F 29.90 in Calm     90 % 0.00 in 0 W/m2
02:54 63.8 °F 61.0 °F 29.89 in Calm     90 % 0.00 in 0 W/m2
03:09 63.4 °F 61.0 °F 29.89 in Calm   2.0 mph 90 % 0.00 in 0 W/m2
03:24 63.5 °F 61.0 °F 29.90 in Calm     90 % 0.00 in 0 W/m2
03:39 63.6 °F 61.0 °F 29.90 in Calm   2.0 mph 91 % 0.00 in 0 W/m2
03:54 63.6 °F 61.0 °F 29.89 in Calm   4.0 mph 91 % 0.00 in 0 W/m2
04:09 63.5 °F 61.0 °F 29.89 in Calm   1.0 mph 91 % 0.00 in 0 W/m2
04:24 63.8 °F 61.0 °F 29.89 in Calm     91 % 0.00 in 0 W/m2
04:39 63.8 °F 61.0 °F 29.88 in Calm   1.0 mph 91 % 0.00 in 0 W/m2
04:54 63.6 °F 61.0 °F 29.88 in Calm   1.0 mph 91 % 0.00 in 0 W/m2
05:09 63.5 °F 61.0 °F 29.87 in Calm   3.0 mph 91 % 0.00 in 0 W/m2
05:24 63.6 °F 61.0 °F 29.87 in Calm   1.0 mph 91 % 0.00 in 0 W/m2
05:39 63.6 °F 61.0 °F 29.86 in East 3.0 mph 3.0 mph 91 % 0.13 in 0 W/m2
05:54 63.3 °F 61.0 °F 29.86 in Calm   1.0 mph 91 % 0.14 in 0 W/m2
06:09 63.1 °F 61.0 °F 29.87 in Calm   1.0 mph 91 % 0.14 in 0 W/m2
06:24 63.1 °F 61.0 °F 29.87 in Calm   1.0 mph 91 % 0.14 in 0 W/m2
06:39 63.1 °F 61.0 °F 29.86 in Calm     91 % 0.01 in 0 W/m2
06:54 63.0 °F 60.0 °F 29.87 in Calm     91 % 0.00 in 0 W/m2
07:09 63.1 °F 61.0 °F 29.88 in Calm   1.0 mph 91 % 0.00 in 0 W/m2
07:24 63.1 °F 61.0 °F 29.88 in Calm   1.0 mph 91 % 0.01 in 0 W/m2
07:39 63.1 °F 61.0 °F 29.88 in Calm   2.0 mph 91 % 0.01 in 0 W/m2
07:54 62.2 °F 59.0 °F 29.89 in Calm   6.0 mph 90 % 0.03 in 14 W/m2
08:09 61.2 °F 59.0 °F 29.89 in NE 4.0 mph 7.0 mph 91 % 0.03 in 18 W/m2
08:24 61.0 °F 58.0 °F 29.88 in NE 1.0 mph 7.0 mph 91 % 0.03 in 28 W/m2
08:39 61.3 °F 59.0 °F 29.88 in NE 1.0 mph 7.0 mph 91 % 0.03 in 35 W/m2
08:54 61.6 °F 59.0 °F 29.88 in NE 2.0 mph 3.0 mph 91 % 0.01 in 54 W/m2
09:09 61.8 °F 59.0 °F 29.88 in Calm   3.0 mph 91 % 0.01 in 35 W/m2
09:24 61.9 °F 60.0 °F 29.87 in NE 1.0 mph 3.0 mph 92 % 0.00 in 88 W/m2
09:39 62.2 °F 60.0 °F 29.87 in NE 3.0 mph 4.0 mph 91 % 0.00 in 104 W/m2
09:54 62.6 °F 60.0 °F 29.87 in Calm   4.0 mph 91 % 0.00 in 144 W/m2
10:09 63.1 °F 61.0 °F 29.87 in Calm   3.0 mph 91 % 0.00 in 104 W/m2
10:24 63.4 °F 61.0 °F 29.86 in NE 2.0 mph 3.0 mph 91 % 0.00 in 105 W/m2
10:39 63.8 °F 61.0 °F 29.86 in Calm   2.0 mph 91 % 0.00 in 118 W/m2
10:54 64.1 °F 61.0 °F 29.86 in Calm   2.0 mph 90 % 0.00 in 244 W/m2
11:09 65.9 °F 63.0 °F 29.85 in NE 1.0 mph 2.0 mph 89 % 0.00 in 464 W/m2
11:25 67.2 °F 63.0 °F 29.84 in NE 1.0 mph 4.0 mph 86 % 0.00 in 251 W/m2
11:40 67.2 °F 62.0 °F 29.84 in Calm   3.0 mph 84 % 0.00 in 311 W/m2
11:55 67.7 °F 62.0 °F 29.84 in Calm   3.0 mph 83 % 0.00 in 410 W/m2
12:10 68.2 °F 62.0 °F 29.84 in Calm   2.0 mph 81 % 0.00 in 229 W/m2
12:25 68.2 °F 62.0 °F 29.84 in Calm   1.0 mph 81 % 0.00 in 163 W/m2
12:40 67.5 °F 62.0 °F 29.84 in NNW 5.0 mph 9.0 mph 82 % 0.00 in 202 W/m2
12:55 67.4 °F 62.0 °F 29.84 in North 3.0 mph 8.0 mph 82 % 0.00 in 250 W/m2
13:10 68.1 °F 62.0 °F 29.85 in North 4.0 mph 8.0 mph 81 % 0.00 in 262 W/m2
13:25 68.2 °F 61.0 °F 29.84 in NE 4.0 mph 8.0 mph 79 % 0.00 in 271 W/m2
13:40 68.7 °F 62.0 °F 29.85 in Calm   5.0 mph 79 % 0.00 in 250 W/m2
13:55 68.9 °F 62.0 °F 29.85 in Calm   5.0 mph 78 % 0.00 in 287 W/m2
14:10 69.7 °F 62.0 °F 29.84 in Calm   6.0 mph 76 % 0.00 in 278 W/m2
14:25 71.1 °F 62.0 °F 29.84 in Calm   6.0 mph 73 % 0.00 in 404 W/m2
14:40 72.1 °F 62.0 °F 29.84 in NNW 1.0 mph 5.0 mph 71 % 0.00 in 422 W/m2
14:55 72.3 °F 62.0 °F 29.84 in NNW 2.0 mph 6.0 mph 69 % 0.00 in 485 W/m2
15:10 73.3 °F 62.0 °F 29.83 in NW 2.0 mph 5.0 mph 67 % 0.00 in 330 W/m2
15:25 73.0 °F 61.0 °F 29.83 in NW 3.0 mph 5.0 mph 67 % 0.00 in 459 W/m2
15:40 73.7 °F 62.0 °F 29.82 in WNW 2.0 mph 7.0 mph 66 % 0.00 in 742 W/m2
15:55 75.8 °F 63.0 °F 29.82 in Calm   10.0 mph 64 % 0.00 in 334 W/m2
16:10 74.5 °F 61.0 °F 29.82 in NW 3.0 mph 10.0 mph 64 % 0.00 in 411 W/m2
16:25 74.5 °F 60.0 °F 29.81 in NW 3.0 mph 6.0 mph 60 % 0.00 in 381 W/m2
16:40 75.7 °F 60.0 °F 29.81 in WNW 1.0 mph 6.0 mph 59 % 0.00 in 631 W/m2
16:55 76.7 °F 60.0 °F 29.80 in NW 2.0 mph 5.0 mph 56 % 0.00 in 580 W/m2
17:10 77.5 °F 59.0 °F 29.80 in West 1.0 mph 7.0 mph 54 % 0.00 in 557 W/m2
17:26 77.3 °F 59.0 °F 29.80 in WNW 3.0 mph 7.0 mph 54 % 0.00 in 527 W/m2
17:41 75.8 °F 59.0 °F 29.80 in NNW 6.0 mph 9.0 mph 56 % 0.00 in 109 W/m2
17:55 75.0 °F 59.0 °F 29.80 in NNW 2.0 mph 11.0 mph 57 % 0.00 in 181 W/m2
18:10 74.5 °F 59.0 °F 29.79 in NNW 5.0 mph 12.0 mph 58 % 0.00 in 244 W/m2
18:25 75.6 °F 60.0 °F 29.78 in North 3.0 mph 12.0 mph 59 % 0.00 in 439 W/m2
18:40 74.0 °F 60.0 °F 29.78 in NNW 6.0 mph 12.0 mph 62 % 0.00 in 135 W/m2
18:56 73.3 °F 61.0 °F 29.78 in North 4.0 mph 12.0 mph 65 % 0.00 in 137 W/m2
19:10 73.2 °F 61.0 °F 29.77 in North 5.0 mph 10.0 mph 65 % 0.00 in 49 W/m2
19:26 72.9 °F 60.0 °F 29.78 in NNW 4.0 mph 10.0 mph 65 % 0.00 in 77 W/m2
19:41 72.8 °F 60.0 °F 29.78 in NW 5.0 mph 11.0 mph 65 % 0.00 in 25 W/m2
19:56 72.3 °F 61.0 °F 29.78 in NNW 5.0 mph 9.0 mph 67 % 0.00 in 19 W/m2
20:11 71.3 °F 60.0 °F 29.78 in NW 6.0 mph 11.0 mph 68 % 0.00 in 16 W/m2
20:25 70.0 °F 61.0 °F 29.79 in North 5.0 mph 11.0 mph 74 % 0.00 in 11 W/m2
20:41 68.5 °F 61.0 °F 29.79 in North 3.0 mph 8.0 mph 77 % 0.00 in 7 W/m2
20:56 67.5 °F 60.0 °F 29.79 in NNE 4.0 mph 8.0 mph 78 % 0.00 in 0 W/m2
21:11 66.8 °F 60.0 °F 29.79 in Calm   4.0 mph 80 % 0.00 in 0 W/m2
21:26 66.1 °F 60.0 °F 29.80 in Calm   4.0 mph 81 % 0.00 in 0 W/m2
21:41 65.5 °F 60.0 °F 29.80 in NNE 2.0 mph 5.0 mph 82 % 0.00 in 0 W/m2
21:56 65.0 °F 60.0 °F 29.81 in NNE 1.0 mph 3.0 mph 83 % 0.00 in 0 W/m2
22:12 64.5 °F 59.0 °F 29.81 in Calm   2.0 mph 83 % 0.00 in 0 W/m2
22:26 64.0 °F 59.0 °F 29.81 in Calm   2.0 mph 84 % 0.00 in 0 W/m2
22:41 63.6 °F 59.0 °F 29.82 in Calm   1.0 mph 84 % 0.00 in 0 W/m2
22:56 63.1 °F 58.0 °F 29.82 in Calm     84 % 0.00 in 0 W/m2
23:11 62.6 °F 58.0 °F 29.82 in Calm     85 % 0.00 in 0 W/m2
23:26 62.2 °F 58.0 °F 29.82 in Calm   4.0 mph 86 % 0.00 in 0 W/m2
23:41 62.1 °F 58.0 °F 29.81 in Calm   2.0 mph 87 % 0.00 in 0 W/m2
23:57 62.0 °F 58.0 °F 29.81 in NNE 1.0 mph 2.0 mph 87 % 0.00 in 0 W/m2
Compliments of Weather Underground - 1 mb